sensor_id;sensor_type;location;lat;lon;timestamp;pressure;altitude;pressure_sealevel;temperature;humidity
47883;BME280;37739;50.350;7.578;2022-10-23T00:01:32;99747.59;;;13.20;92.42
47883;BME280;37739;50.350;7.578;2022-10-23T00:04:06;99753.59;;;13.20;92.17
47883;BME280;37739;50.350;7.578;2022-10-23T00:06:33;99748.44;;;13.20;92.21
47883;BME280;37739;50.350;7.578;2022-10-23T00:08:59;99744.16;;;13.19;92.33
47883;BME280;37739;50.350;7.578;2022-10-23T00:11:27;99739.81;;;13.18;92.55
47883;BME280;37739;50.350;7.578;2022-10-23T00:13:54;99739.81;;;13.18;92.11
47883;BME280;37739;50.350;7.578;2022-10-23T00:16:20;99745.81;;;13.17;92.37
47883;BME280;37739;50.350;7.578;2022-10-23T00:18:45;99743.19;;;13.15;92.15
47883;BME280;37739;50.350;7.578;2022-10-23T00:21:13;99744.00;;;13.13;92.41
47883;BME280;37739;50.350;7.578;2022-10-23T00:23:39;99743.94;;;13.11;92.47
47883;BME280;37739;50.350;7.578;2022-10-23T00:26:05;99740.47;;;13.09;92.45
47883;BME280;37739;50.350;7.578;2022-10-23T00:28:32;99733.53;;;13.07;92.46
47883;BME280;37739;50.350;7.578;2022-10-23T00:31:00;99736.03;;;13.04;92.52
47883;BME280;37739;50.350;7.578;2022-10-23T00:33:28;99730.00;;;13.03;92.89
47883;BME280;37739;50.350;7.578;2022-10-23T00:35:53;99723.09;;;13.02;92.99
47883;BME280;37739;50.350;7.578;2022-10-23T00:38:21;99719.56;;;12.99;92.59
47883;BME280;37739;50.350;7.578;2022-10-23T00:40:47;99714.31;;;12.94;92.38
47883;BME280;37739;50.350;7.578;2022-10-23T00:43:28;99713.31;;;12.89;92.73
47883;BME280;37739;50.350;7.578;2022-10-23T00:45:53;99714.88;;;12.82;93.06
47883;BME280;37739;50.350;7.578;2022-10-23T00:48:19;99710.47;;;12.78;93.11
47883;BME280;37739;50.350;7.578;2022-10-23T00:50:45;99710.34;;;12.73;93.08
47883;BME280;37739;50.350;7.578;2022-10-23T00:53:14;99701.59;;;12.67;93.67
47883;BME280;37739;50.350;7.578;2022-10-23T00:55:44;99692.06;;;12.64;93.73
47883;BME280;37739;50.350;7.578;2022-10-23T00:58:18;99694.63;;;12.63;94.01
47883;BME280;37739;50.350;7.578;2022-10-23T01:00:53;99704.81;;;12.60;93.83
47883;BME280;37739;50.350;7.578;2022-10-23T01:03:22;99709.06;;;12.57;94.28
47883;BME280;37739;50.350;7.578;2022-10-23T01:05:59;99704.81;;;12.60;94.23
47883;BME280;37739;50.350;7.578;2022-10-23T01:08:36;99717.78;;;12.63;94.28
47883;BME280;37739;50.350;7.578;2022-10-23T01:11:14;99716.97;;;12.65;94.53
47883;BME280;37739;50.350;7.578;2022-10-23T01:14:00;99726.44;;;12.66;94.76
47883;BME280;37739;50.350;7.578;2022-10-23T01:19:20;99716.28;;;12.71;94.49
47883;BME280;37739;50.350;7.578;2022-10-23T01:22:09;99711.09;;;12.69;94.31
47883;BME280;37739;50.350;7.578;2022-10-23T01:24:45;99715.31;;;12.67;94.20
47883;BME280;37739;50.350;7.578;2022-10-23T01:35:12;99714.25;;;12.59;94.26
47883;BME280;37739;50.350;7.578;2022-10-23T01:37:42;99709.75;;;12.52;94.67
47883;BME280;37739;50.350;7.578;2022-10-23T01:40:14;99708.84;;;12.50;94.67
47883;BME280;37739;50.350;7.578;2022-10-23T01:42:47;99703.69;;;12.50;94.88
47883;BME280;37739;50.350;7.578;2022-10-23T01:45:20;99698.44;;;12.47;95.37
47883;BME280;37739;50.350;7.578;2022-10-23T01:47:51;99695.88;;;12.47;95.09
47883;BME280;37739;50.350;7.578;2022-10-23T01:50:18;99690.72;;;12.47;95.15
47883;BME280;37739;50.350;7.578;2022-10-23T01:52:47;99688.91;;;12.43;95.50
47883;BME280;37739;50.350;7.578;2022-10-23T01:55:15;99685.47;;;12.42;95.47
47883;BME280;37739;50.350;7.578;2022-10-23T01:57:45;99688.84;;;12.40;94.89
47883;BME280;37739;50.350;7.578;2022-10-23T02:00:18;99686.16;;;12.36;95.17
47883;BME280;37739;50.350;7.578;2022-10-23T02:02:45;99692.00;;;12.31;95.41
47883;BME280;37739;50.350;7.578;2022-10-23T02:05:30;99680.81;;;12.29;95.74
47883;BME280;37739;50.350;7.578;2022-10-23T02:08:01;99679.06;;;12.28;95.59
47883;BME280;37739;50.350;7.578;2022-10-23T02:10:35;99669.56;;;12.25;95.83
47883;BME280;37739;50.350;7.578;2022-10-23T02:13:12;99663.56;;;12.25;95.73
47883;BME280;37739;50.350;7.578;2022-10-23T02:15:48;99662.59;;;12.21;95.28
47883;BME280;37739;50.350;7.578;2022-10-23T02:18:45;99663.19;;;12.12;96.02
47883;BME280;37739;50.350;7.578;2022-10-23T02:21:27;99654.41;;;12.04;96.65
47883;BME280;37739;50.350;7.578;2022-10-23T02:24:11;99642.28;;;12.00;96.65
47883;BME280;37739;50.350;7.578;2022-10-23T02:27:01;99633.59;;;11.96;97.07
47883;BME280;37739;50.350;7.578;2022-10-23T02:29:33;99641.25;;;11.95;97.09
47883;BME280;37739;50.350;7.578;2022-10-23T02:32:03;99636.00;;;11.90;97.25
47883;BME280;37739;50.350;7.578;2022-10-23T02:34:28;99625.72;;;11.90;97.31
47883;BME280;37739;50.350;7.578;2022-10-23T02:36:54;99612.75;;;11.87;97.54
47883;BME280;37739;50.350;7.578;2022-10-23T02:39:23;99618.81;;;11.89;97.39
47883;BME280;37739;50.350;7.578;2022-10-23T02:41:56;99631.63;;;11.88;97.61
47883;BME280;37739;50.350;7.578;2022-10-23T02:44:30;99625.59;;;11.87;97.70
47883;BME280;37739;50.350;7.578;2022-10-23T02:47:17;99622.94;;;11.84;97.82
47883;BME280;37739;50.350;7.578;2022-10-23T02:50:05;99631.41;;;11.80;98.16
47883;BME280;37739;50.350;7.578;2022-10-23T02:57:34;99630.72;;;11.86;98.16
47883;BME280;37739;50.350;7.578;2022-10-23T03:02:48;99623.97;;;11.89;98.06
47883;BME280;37739;50.350;7.578;2022-10-23T03:05:23;99635.06;;;11.88;98.05
47883;BME280;37739;50.350;7.578;2022-10-23T03:07:50;99630.00;;;11.90;97.97
47883;BME280;37739;50.350;7.578;2022-10-23T03:10:21;99622.28;;;11.90;98.34
47883;BME280;37739;50.350;7.578;2022-10-23T03:12:46;99595.00;;;11.95;98.34
47883;BME280;37739;50.350;7.578;2022-10-23T03:15:13;99591.66;;;11.97;98.01
47883;BME280;37739;50.350;7.578;2022-10-23T03:17:41;99586.41;;;11.94;97.60
47883;BME280;37739;50.350;7.578;2022-10-23T03:20:07;99590.59;;;11.91;98.17
47883;BME280;37739;50.350;7.578;2022-10-23T03:22:32;99592.22;;;11.89;97.98
47883;BME280;37739;50.350;7.578;2022-10-23T03:24:58;99600.94;;;11.92;97.56
47883;BME280;37739;50.350;7.578;2022-10-23T03:27:27;99600.13;;;11.95;97.84
47883;BME280;37739;50.350;7.578;2022-10-23T03:29:53;99603.56;;;11.94;97.90
47883;BME280;37739;50.350;7.578;2022-10-23T03:32:20;99601.91;;;11.96;98.59
47883;BME280;37739;50.350;7.578;2022-10-23T03:34:48;99601.03;;;11.97;98.19
47883;BME280;37739;50.350;7.578;2022-10-23T03:37:16;99601.03;;;11.97;98.22
47883;BME280;37739;50.350;7.578;2022-10-23T03:39:41;99587.28;;;11.95;98.23
47883;BME280;37739;50.350;7.578;2022-10-23T03:42:10;99588.94;;;11.91;98.02
47883;BME280;37739;50.350;7.578;2022-10-23T03:44:37;99591.50;;;11.93;97.99
47883;BME280;37739;50.350;7.578;2022-10-23T03:47:03;99600.06;;;11.92;98.53
47883;BME280;37739;50.350;7.578;2022-10-23T03:49:28;99608.69;;;11.94;97.75
47883;BME280;37739;50.350;7.578;2022-10-23T03:51:58;99594.06;;;11.91;97.70
47883;BME280;37739;50.350;7.578;2022-10-23T03:54:25;99591.50;;;11.91;97.83
47883;BME280;37739;50.350;7.578;2022-10-23T03:56:51;99587.09;;;11.89;98.33
47883;BME280;37739;50.350;7.578;2022-10-23T03:59:19;99582.03;;;11.90;98.39
47883;BME280;37739;50.350;7.578;2022-10-23T04:01:45;99581.22;;;11.93;98.14
47883;BME280;37739;50.350;7.578;2022-10-23T04:04:11;99584.69;;;11.93;98.13
47883;BME280;37739;50.350;7.578;2022-10-23T04:06:39;99582.13;;;11.93;98.13
47883;BME280;37739;50.350;7.578;2022-10-23T04:09:06;99565.00;;;11.94;97.58
47883;BME280;37739;50.350;7.578;2022-10-23T04:11:33;99574.19;;;11.87;97.80
47883;BME280;37739;50.350;7.578;2022-10-23T04:13:59;99580.16;;;11.86;97.80
47883;BME280;37739;50.350;7.578;2022-10-23T04:16:26;99586.06;;;11.82;97.82
47883;BME280;37739;50.350;7.578;2022-10-23T04:18:52;99574.84;;;11.80;97.99
47883;BME280;37739;50.350;7.578;2022-10-23T04:21:22;99570.63;;;11.82;97.44
47883;BME280;37739;50.350;7.578;2022-10-23T04:23:49;99566.31;;;11.81;97.70
47883;BME280;37739;50.350;7.578;2022-10-23T04:26:15;99569.72;;;11.80;97.58
47883;BME280;37739;50.350;7.578;2022-10-23T04:28:42;99567.09;;;11.78;97.76
47883;BME280;37739;50.350;7.578;2022-10-23T04:31:10;99581.69;;;11.79;97.75
47883;BME280;37739;50.350;7.578;2022-10-23T04:33:35;99577.38;;;11.78;97.85
47883;BME280;37739;50.350;7.578;2022-10-23T04:36:03;99567.06;;;11.77;97.53
47883;BME280;37739;50.350;7.578;2022-10-23T04:38:29;99567.09;;;11.78;97.40
47883;BME280;37739;50.350;7.578;2022-10-23T04:40:58;99578.25;;;11.79;97.42
47883;BME280;37739;50.350;7.578;2022-10-23T04:43:24;99572.19;;;11.77;97.16
47883;BME280;37739;50.350;7.578;2022-10-23T04:45:49;99579.03;;;11.76;97.20
47883;BME280;37739;50.350;7.578;2022-10-23T04:48:17;99567.84;;;11.74;97.42
47883;BME280;37739;50.350;7.578;2022-10-23T04:50:42;99563.47;;;11.72;97.71
47883;BME280;37739;50.350;7.578;2022-10-23T04:53:10;99563.34;;;11.67;97.51
47883;BME280;37739;50.350;7.578;2022-10-23T04:55:35;99559.03;;;11.66;97.62
47883;BME280;37739;50.350;7.578;2022-10-23T04:58:00;99556.34;;;11.62;97.70
47883;BME280;37739;50.350;7.578;2022-10-23T05:00:28;99546.00;;;11.60;97.75
47883;BME280;37739;50.350;7.578;2022-10-23T05:02:53;99538.28;;;11.60;98.09
47883;BME280;37739;50.350;7.578;2022-10-23T05:05:24;99538.34;;;11.62;97.86
47883;BME280;37739;50.350;7.578;2022-10-23T05:07:51;99539.19;;;11.61;97.76
47883;BME280;37739;50.350;7.578;2022-10-23T05:10:19;99533.91;;;11.56;97.50
47883;BME280;37739;50.350;7.578;2022-10-23T05:12:44;99539.00;;;11.54;97.91
47883;BME280;37739;50.350;7.578;2022-10-23T05:15:10;99538.06;;;11.52;98.10
47883;BME280;37739;50.350;7.578;2022-10-23T05:17:36;99542.34;;;11.52;98.00
47883;BME280;37739;50.350;7.578;2022-10-23T05:20:06;99531.97;;;11.47;98.20
47883;BME280;37739;50.350;7.578;2022-10-23T05:22:35;99525.13;;;11.48;98.17
47883;BME280;37739;50.350;7.578;2022-10-23T05:25:09;99513.13;;;11.48;98.24
47883;BME280;37739;50.350;7.578;2022-10-23T05:27:37;99508.00;;;11.48;98.11
47883;BME280;37739;50.350;7.578;2022-10-23T05:30:03;99506.28;;;11.49;97.77
47883;BME280;37739;50.350;7.578;2022-10-23T05:32:30;99514.03;;;11.50;97.49
47883;BME280;37739;50.350;7.578;2022-10-23T05:35:02;99515.66;;;11.47;97.52
47883;BME280;37739;50.350;7.578;2022-10-23T05:37:33;99524.19;;;11.46;97.67
47883;BME280;37739;50.350;7.578;2022-10-23T05:39:58;99521.47;;;11.39;97.70
47883;BME280;37739;50.350;7.578;2022-10-23T05:42:28;99517.97;;;11.37;98.29
47883;BME280;37739;50.350;7.578;2022-10-23T05:44:58;99516.31;;;11.39;98.31
47883;BME280;37739;50.350;7.578;2022-10-23T05:47:23;99515.44;;;11.39;97.95
47883;BME280;37739;50.350;7.578;2022-10-23T05:49:49;99508.63;;;11.41;97.76
47883;BME280;37739;50.350;7.578;2022-10-23T05:52:14;99515.53;;;11.42;97.81
47883;BME280;37739;50.350;7.578;2022-10-23T05:54:46;99518.84;;;11.38;97.52
47883;BME280;37739;50.350;7.578;2022-10-23T05:57:11;99516.28;;;11.38;97.80
47883;BME280;37739;50.350;7.578;2022-10-23T05:59:37;99514.50;;;11.37;97.60
47883;BME280;37739;50.350;7.578;2022-10-23T06:02:04;99505.84;;;11.33;97.76
47883;BME280;37739;50.350;7.578;2022-10-23T06:04:30;99487.09;;;11.36;97.76
47883;BME280;37739;50.350;7.578;2022-10-23T06:06:57;99493.97;;;11.37;97.59
47883;BME280;37739;50.350;7.578;2022-10-23T06:09:22;99495.69;;;11.36;97.38
47883;BME280;37739;50.350;7.578;2022-10-23T06:11:47;99497.28;;;11.33;97.46
47883;BME280;37739;50.350;7.578;2022-10-23T06:14:13;99492.94;;;11.30;97.55
47883;BME280;37739;50.350;7.578;2022-10-23T06:16:38;99491.88;;;11.24;97.66
47883;BME280;37739;50.350;7.578;2022-10-23T06:19:03;99497.00;;;11.24;97.87
47883;BME280;37739;50.350;7.578;2022-10-23T06:21:29;99493.69;;;11.26;97.68
47883;BME280;37739;50.350;7.578;2022-10-23T06:23:54;99502.25;;;11.27;97.42
47883;BME280;37739;50.350;7.578;2022-10-23T06:26:22;99503.09;;;11.27;97.51
47883;BME280;37739;50.350;7.578;2022-10-23T06:28:47;99506.53;;;11.28;97.69
47883;BME280;37739;50.350;7.578;2022-10-23T06:31:14;99503.22;;;11.30;97.71
47883;BME280;37739;50.350;7.578;2022-10-23T06:33:40;99502.94;;;11.21;97.53
47883;BME280;37739;50.350;7.578;2022-10-23T06:36:06;99503.78;;;11.22;98.27
47883;BME280;37739;50.350;7.578;2022-10-23T06:38:37;99500.59;;;11.29;98.11
47883;BME280;37739;50.350;7.578;2022-10-23T06:41:20;99504.06;;;11.31;97.71
47883;BME280;37739;50.350;7.578;2022-10-23T06:43:49;99503.28;;;11.33;97.59
47883;BME280;37739;50.350;7.578;2022-10-23T06:46:16;99498.97;;;11.32;97.06
47883;BME280;37739;50.350;7.578;2022-10-23T06:48:42;99494.63;;;11.30;97.45
47883;BME280;37739;50.350;7.578;2022-10-23T06:51:10;99495.56;;;11.33;97.39
47883;BME280;37739;50.350;7.578;2022-10-23T06:53:38;99490.41;;;11.32;97.41
47883;BME280;37739;50.350;7.578;2022-10-23T06:56:09;99503.22;;;11.30;97.66
47883;BME280;37739;50.350;7.578;2022-10-23T06:58:40;99487.88;;;11.33;97.90
47883;BME280;37739;50.350;7.578;2022-10-23T07:01:11;99488.09;;;11.41;97.69
47883;BME280;37739;50.350;7.578;2022-10-23T07:03:40;99484.72;;;11.42;97.58
47883;BME280;37739;50.350;7.578;2022-10-23T07:06:09;99494.25;;;11.46;97.60
47883;BME280;37739;50.350;7.578;2022-10-23T07:08:35;99491.03;;;11.53;97.70
47883;BME280;37739;50.350;7.578;2022-10-23T07:11:03;99491.13;;;11.58;97.28
47883;BME280;37739;50.350;7.578;2022-10-23T07:13:29;99494.63;;;11.60;97.32
47883;BME280;37739;50.350;7.578;2022-10-23T07:15:55;99497.28;;;11.63;97.63
47883;BME280;37739;50.350;7.578;2022-10-23T07:18:25;99484.50;;;11.66;97.65
47883;BME280;37739;50.350;7.578;2022-10-23T07:20:56;99482.94;;;11.71;97.43
47883;BME280;37739;50.350;7.578;2022-10-23T07:23:22;99476.13;;;11.73;97.58
47883;BME280;37739;50.350;7.578;2022-10-23T07:25:49;99473.56;;;11.73;97.75
47883;BME280;37739;50.350;7.578;2022-10-23T07:28:17;99472.00;;;11.78;98.45
47883;BME280;37739;50.350;7.578;2022-10-23T07:30:42;99473.13;;;11.88;97.98
47883;BME280;37739;50.350;7.578;2022-10-23T07:33:08;99475.06;;;11.95;97.92
47883;BME280;37739;50.350;7.578;2022-10-23T07:35:38;99465.78;;;12.02;97.46
47883;BME280;37739;50.350;7.578;2022-10-23T07:38:05;99469.28;;;12.04;97.49
47883;BME280;37739;50.350;7.578;2022-10-23T07:40:35;99467.56;;;12.03;97.44
47883;BME280;37739;50.350;7.578;2022-10-23T07:43:03;99464.03;;;12.00;97.79
47883;BME280;37739;50.350;7.578;2022-10-23T07:45:28;99466.69;;;12.04;97.51
47883;BME280;37739;50.350;7.578;2022-10-23T07:47:54;99471.06;;;12.07;98.05
47883;BME280;37739;50.350;7.578;2022-10-23T07:50:19;99471.22;;;12.13;97.96
47883;BME280;37739;50.350;7.578;2022-10-23T07:52:44;99473.91;;;12.17;97.69
47883;BME280;37739;50.350;7.578;2022-10-23T07:55:10;99469.72;;;12.21;97.76
47883;BME280;37739;50.350;7.578;2022-10-23T07:57:38;99480.09;;;12.26;97.29
47883;BME280;37739;50.350;7.578;2022-10-23T08:00:06;99478.47;;;12.29;96.86
47883;BME280;37739;50.350;7.578;2022-10-23T08:02:34;99473.47;;;12.35;96.79
47883;BME280;37739;50.350;7.578;2022-10-23T08:05:01;99471.84;;;12.39;96.68
47883;BME280;37739;50.350;7.578;2022-10-23T08:07:31;99468.50;;;12.42;96.65
47883;BME280;37739;50.350;7.578;2022-10-23T08:09:56;99465.94;;;12.43;96.99
47883;BME280;37739;50.350;7.578;2022-10-23T08:12:24;99464.38;;;12.48;96.48
47883;BME280;37739;50.350;7.578;2022-10-23T08:14:50;99459.84;;;12.38;96.10
47883;BME280;37739;50.350;7.578;2022-10-23T08:17:17;99460.19;;;12.17;97.00
47883;BME280;37739;50.350;7.578;2022-10-23T08:19:45;99457.00;;;12.27;97.48
47883;BME280;37739;50.350;7.578;2022-10-23T08:22:13;99456.47;;;12.41;97.28
47883;BME280;37739;50.350;7.578;2022-10-23T08:24:40;99463.53;;;12.49;96.58
47883;BME280;37739;50.350;7.578;2022-10-23T08:27:08;99459.25;;;12.50;96.46
47883;BME280;37739;50.350;7.578;2022-10-23T08:29:33;99467.13;;;12.56;96.45
47883;BME280;37739;50.350;7.578;2022-10-23T08:31:59;99464.59;;;12.57;95.84
47883;BME280;37739;50.350;7.578;2022-10-23T08:34:26;99457.00;;;12.64;96.57
47883;BME280;37739;50.350;7.578;2022-10-23T08:36:52;99455.38;;;12.67;96.45
47883;BME280;37739;50.350;7.578;2022-10-23T08:39:20;99444.25;;;12.68;96.98
47883;BME280;37739;50.350;7.578;2022-10-23T08:41:50;99442.59;;;12.70;96.78
47883;BME280;37739;50.350;7.578;2022-10-23T08:44:35;99440.19;;;12.80;96.51
47883;BME280;37739;50.350;7.578;2022-10-23T08:47:28;99432.81;;;12.95;96.66
47883;BME280;37739;50.350;7.578;2022-10-23T08:49:59;99421.78;;;13.01;95.78
47883;BME280;37739;50.350;7.578;2022-10-23T08:57:35;99422.75;;;13.06;96.42
47883;BME280;37739;50.350;7.578;2022-10-23T09:00:10;99416.06;;;13.15;95.81
47883;BME280;37739;50.350;7.578;2022-10-23T09:02:44;99420.31;;;13.13;96.64
47883;BME280;37739;50.350;7.578;2022-10-23T09:05:26;99416.13;;;13.17;96.46
47883;BME280;37739;50.350;7.578;2022-10-23T09:08:02;99406.63;;;13.14;96.06
47883;BME280;37739;50.350;7.578;2022-10-23T09:18:40;99415.84;;;13.46;95.09
47883;BME280;37739;50.350;7.578;2022-10-23T09:21:11;99413.41;;;13.53;94.42
47883;BME280;37739;50.350;7.578;2022-10-23T09:23:37;99411.81;;;13.60;94.00
47883;BME280;37739;50.350;7.578;2022-10-23T09:26:10;99414.47;;;13.63;93.81
47883;BME280;37739;50.350;7.578;2022-10-23T09:28:44;99412.81;;;13.67;93.89
47883;BME280;37739;50.350;7.578;2022-10-23T09:31:11;99407.69;;;13.68;93.46
47883;BME280;37739;50.350;7.578;2022-10-23T09:33:37;99393.13;;;13.70;92.97
47883;BME280;37739;50.350;7.578;2022-10-23T09:36:13;99393.13;;;13.72;93.23
47883;BME280;37739;50.350;7.578;2022-10-23T09:43:38;99387.09;;;13.71;93.86
47883;BME280;37739;50.350;7.578;2022-10-23T09:46:07;99387.06;;;13.68;93.05
47883;BME280;37739;50.350;7.578;2022-10-23T09:48:39;99394.75;;;13.65;94.01
47883;BME280;37739;50.350;7.578;2022-10-23T09:51:24;99385.28;;;13.66;94.33
47883;BME280;37739;50.350;7.578;2022-10-23T09:53:52;99386.16;;;13.66;93.67
47883;BME280;37739;50.350;7.578;2022-10-23T09:56:39;99392.28;;;13.73;93.55
47883;BME280;37739;50.350;7.578;2022-10-23T10:01:53;99392.44;;;13.81;93.86
47883;BME280;37739;50.350;7.578;2022-10-23T10:04:39;99388.16;;;13.83;93.71
47883;BME280;37739;50.350;7.578;2022-10-23T10:07:27;99377.94;;;13.89;93.05
47883;BME280;37739;50.350;7.578;2022-10-23T10:09:56;99381.44;;;13.92;93.67
47883;BME280;37739;50.350;7.578;2022-10-23T10:15:03;99379.03;;;14.02;92.74
47883;BME280;37739;50.350;7.578;2022-10-23T10:17:42;99369.59;;;14.04;92.49
47883;BME280;37739;50.350;7.578;2022-10-23T10:20:21;99377.28;;;14.01;92.70
47883;BME280;37739;50.350;7.578;2022-10-23T10:23:11;99371.31;;;14.05;92.60
47883;BME280;37739;50.350;7.578;2022-10-23T10:26:21;99386.88;;;14.08;92.05
47883;BME280;37739;50.350;7.578;2022-10-23T10:34:54;99370.56;;;14.10;91.29
47883;BME280;37739;50.350;7.578;2022-10-23T10:40:24;99337.03;;;14.10;91.98
47883;BME280;37739;50.350;7.578;2022-10-23T10:43:09;99339.59;;;14.09;92.12
47883;BME280;37739;50.350;7.578;2022-10-23T10:50:47;99330.28;;;14.20;91.76
47883;BME280;37739;50.350;7.578;2022-10-23T10:53:33;99324.34;;;14.26;91.03
47883;BME280;37739;50.350;7.578;2022-10-23T10:56:11;99318.41;;;14.30;90.99
47883;BME280;37739;50.350;7.578;2022-10-23T10:58:52;99323.66;;;14.36;90.64
47883;BME280;37739;50.350;7.578;2022-10-23T11:01:29;99305.63;;;14.38;90.17
47883;BME280;37739;50.350;7.578;2022-10-23T11:06:37;99304.91;;;14.49;90.32
47883;BME280;37739;50.350;7.578;2022-10-23T11:09:15;99302.38;;;14.54;90.17
47883;BME280;37739;50.350;7.578;2022-10-23T11:11:41;99308.59;;;14.65;89.96
47883;BME280;37739;50.350;7.578;2022-10-23T11:14:17;99303.72;;;14.90;88.94
47883;BME280;37739;50.350;7.578;2022-10-23T11:16:56;99289.47;;;15.24;87.71
47883;BME280;37739;50.350;7.578;2022-10-23T11:22:03;99292.56;;;15.78;85.56
47883;BME280;37739;50.350;7.578;2022-10-23T11:24:44;99286.69;;;16.04;84.53
47883;BME280;37739;50.350;7.578;2022-10-23T11:30:34;99280.81;;;16.33;81.63
47883;BME280;37739;50.350;7.578;2022-10-23T11:33:27;99290.25;;;16.26;83.06
47883;BME280;37739;50.350;7.578;2022-10-23T11:36:11;99296.31;;;16.28;83.02
47883;BME280;37739;50.350;7.578;2022-10-23T11:38:40;99287.72;;;16.35;82.65
47883;BME280;37739;50.350;7.578;2022-10-23T11:41:19;99288.59;;;16.37;82.07
47883;BME280;37739;50.350;7.578;2022-10-23T11:43:52;99285.16;;;16.35;82.53
47883;BME280;37739;50.350;7.578;2022-10-23T11:48:48;99273.97;;;16.45;81.50
47883;BME280;37739;50.350;7.578;2022-10-23T11:51:40;99274.06;;;16.64;79.37
47883;BME280;37739;50.350;7.578;2022-10-23T11:56:34;99250.03;;;16.99;79.94
47883;BME280;37739;50.350;7.578;2022-10-23T12:01:43;99249.16;;;16.94;78.50
47883;BME280;37739;50.350;7.578;2022-10-23T12:06:48;99253.50;;;17.02;78.42
47883;BME280;37739;50.350;7.578;2022-10-23T12:16:59;99244.03;;;17.52;75.88
47883;BME280;37739;50.350;7.578;2022-10-23T12:19:29;99247.47;;;17.60;76.02
47883;BME280;37739;50.350;7.578;2022-10-23T12:21:59;99239.72;;;17.63;75.01
47883;BME280;37739;50.350;7.578;2022-10-23T12:32:46;99207.69;;;17.83;74.94
47883;BME280;37739;50.350;7.578;2022-10-23T12:40:26;99183.47;;;17.79;74.70
47883;BME280;37739;50.350;7.578;2022-10-23T12:42:56;99172.25;;;17.87;74.96
47883;BME280;37739;50.350;7.578;2022-10-23T12:45:23;99170.50;;;17.98;74.45
47883;BME280;37739;50.350;7.578;2022-10-23T12:47:50;99156.63;;;18.11;74.29
47883;BME280;37739;50.350;7.578;2022-10-23T12:50:22;99159.22;;;18.11;73.97
47883;BME280;37739;50.350;7.578;2022-10-23T12:52:57;99154.00;;;18.05;72.87
47883;BME280;37739;50.350;7.578;2022-10-23T12:55:29;99152.31;;;18.04;74.00
47883;BME280;37739;50.350;7.578;2022-10-23T12:57:57;99147.97;;;18.04;74.22
47883;BME280;37739;50.350;7.578;2022-10-23T13:00:24;99149.72;;;18.02;73.83
47883;BME280;37739;50.350;7.578;2022-10-23T13:03:01;99143.69;;;17.94;73.36
47883;BME280;37739;50.350;7.578;2022-10-23T13:05:27;99151.50;;;17.88;74.39
47883;BME280;37739;50.350;7.578;2022-10-23T13:07:53;99135.03;;;17.81;74.48
47883;BME280;37739;50.350;7.578;2022-10-23T13:10:23;99138.50;;;17.76;73.67
47883;BME280;37739;50.350;7.578;2022-10-23T13:12:57;99138.53;;;17.79;74.11
47883;BME280;37739;50.350;7.578;2022-10-23T13:15:23;99140.22;;;17.88;74.97
47883;BME280;37739;50.350;7.578;2022-10-23T13:22:52;99122.91;;;18.02;74.60
47883;BME280;37739;50.350;7.578;2022-10-23T13:25:31;99119.41;;;18.08;74.74
47883;BME280;37739;50.350;7.578;2022-10-23T13:31:21;99117.69;;;18.10;74.61
47883;BME280;37739;50.350;7.578;2022-10-23T13:33:47;99111.63;;;18.08;74.68
47883;BME280;37739;50.350;7.578;2022-10-23T13:41:16;99099.47;;;18.13;74.53
47883;BME280;37739;50.350;7.578;2022-10-23T13:43:46;99104.66;;;18.14;75.04
47883;BME280;37739;50.350;7.578;2022-10-23T13:46:16;99099.47;;;18.17;74.79
47883;BME280;37739;50.350;7.578;2022-10-23T13:48:42;99088.22;;;18.17;74.65
47883;BME280;37739;50.350;7.578;2022-10-23T13:51:12;99080.41;;;18.18;74.77
47883;BME280;37739;50.350;7.578;2022-10-23T13:53:38;99084.75;;;18.21;74.95
47883;BME280;37739;50.350;7.578;2022-10-23T13:56:04;99087.34;;;18.19;74.88
47883;BME280;37739;50.350;7.578;2022-10-23T13:58:32;99086.44;;;18.22;75.09
47883;BME280;37739;50.350;7.578;2022-10-23T14:00:58;99084.75;;;18.21;74.84
47883;BME280;37739;50.350;7.578;2022-10-23T14:03:23;99084.75;;;18.21;74.79
47883;BME280;37739;50.350;7.578;2022-10-23T14:05:52;99075.22;;;18.20;74.78
47883;BME280;37739;50.350;7.578;2022-10-23T14:08:18;99079.56;;;18.19;74.93
47883;BME280;37739;50.350;7.578;2022-10-23T14:10:43;99073.47;;;18.20;74.32
47883;BME280;37739;50.350;7.578;2022-10-23T14:13:08;99069.13;;;18.22;74.88
47883;BME280;37739;50.350;7.578;2022-10-23T14:15:36;99063.94;;;18.22;74.67
47883;BME280;37739;50.350;7.578;2022-10-23T14:18:04;99057.91;;;18.23;74.72
47883;BME280;37739;50.350;7.578;2022-10-23T14:20:32;99055.28;;;18.23;74.34
47883;BME280;37739;50.350;7.578;2022-10-23T14:22:57;99045.78;;;18.22;74.09
47883;BME280;37739;50.350;7.578;2022-10-23T14:25:23;99055.31;;;18.22;73.81
47883;BME280;37739;50.350;7.578;2022-10-23T14:27:48;99050.09;;;18.23;74.28
47883;BME280;37739;50.350;7.578;2022-10-23T14:30:13;99046.66;;;18.21;73.79
47883;BME280;37739;50.350;7.578;2022-10-23T14:32:41;99032.84;;;18.19;73.59
47883;BME280;37739;50.350;7.578;2022-10-23T14:35:07;99044.97;;;18.17;73.83
47883;BME280;37739;50.350;7.578;2022-10-23T14:37:34;99040.63;;;18.15;73.76
47883;BME280;37739;50.350;7.578;2022-10-23T14:40:00;99038.06;;;18.12;74.00
47883;BME280;37739;50.350;7.578;2022-10-23T14:42:29;99032.91;;;18.04;73.47
47883;BME280;37739;50.350;7.578;2022-10-23T14:44:59;99026.03;;;17.98;73.56
47883;BME280;37739;50.350;7.578;2022-10-23T14:47:29;99026.88;;;17.97;73.98
47883;BME280;37739;50.350;7.578;2022-10-23T14:49:54;99015.69;;;17.92;73.95
47883;BME280;37739;50.350;7.578;2022-10-23T14:52:20;99022.59;;;17.92;74.12
47883;BME280;37739;50.350;7.578;2022-10-23T14:54:50;99011.34;;;17.90;74.12
47883;BME280;37739;50.350;7.578;2022-10-23T14:57:20;99007.91;;;17.88;74.40
47883;BME280;37739;50.350;7.578;2022-10-23T14:59:48;99023.47;;;17.83;74.75
47883;BME280;37739;50.350;7.578;2022-10-23T15:02:16;99026.97;;;17.77;74.29
47883;BME280;37739;50.350;7.578;2022-10-23T15:04:44;99017.47;;;17.73;74.34